Time;durP1;ratioP1;P1;durP2;ratioP2;P2;SDS_P1;SDS_P2;PMS_P1;PMS_P2;Temp;Humidity;BMP_temperature;BMP_pressure;BME280_temperature;BME280_humidity;BME280_pressure;Samples;Min_cycle;Max_cycle;Signal;HPM_P1;HPM_P2
2021/05/02 10:28:27;;;;;;;16.43;9.67;;;;;;;6.22;100.00;99442.34;3667019;78;34834;-87
2021/05/02 10:33:38;;;;;;;20.93;10.97;;;;;;;6.23;100.00;99450.15;3553077;81;26444;-86
2021/05/02 10:39:01;;;;;;;17.75;10.38;;;;;;;6.29;100.00;99454.72;3533782;81;98667;-84
2021/05/02 10:44:13;;;;;;;21.10;9.83;;;;;;;6.38;100.00;99454.64;3517980;82;26563;-84
2021/05/02 10:49:26;;;;;;;14.97;7.87;;;;;;;6.46;100.00;99455.52;3524545;82;98675;-85
2021/05/02 10:54:44;;;;;;;15.63;8.90;;;;;;;6.54;100.00;99464.02;3525570;82;26439;-86
2021/05/02 11:00:10;;;;;;;15.50;7.97;;;;;;;6.60;100.00;99467.98;3501965;82;98333;-85
2021/05/02 11:05:14;;;;;;;13.22;7.30;;;;;;;6.68;100.00;99485.46;3532258;82;25987;-85
2021/05/02 11:10:17;;;;;;;12.78;7.15;;;;;;;6.72;100.00;99490.97;3524641;82;98000;-85
2021/05/02 11:15:32;;;;;;;15.80;7.67;;;;;;;6.76;99.79;99500.77;3529616;82;27106;-86
2021/05/02 11:20:49;;;;;;;12.77;7.03;;;;;;;6.82;99.61;99507.48;3518021;82;98015;-86
2021/05/02 11:25:59;;;;;;;12.00;6.80;;;;;;;6.91;99.49;99512.65;3533462;82;34176;-87
2021/05/02 11:30:53;;;;;;;12.47;6.80;;;;;;;6.95;99.29;99530.69;3523366;82;98003;-86
2021/05/02 11:35:54;;;;;;;12.10;6.43;;;;;;;6.98;99.06;99544.20;3527592;82;97946;-84
2021/05/02 11:41:02;;;;;;;11.30;6.13;;;;;;;6.97;99.03;99558.45;3513869;83;35543;-87
2021/05/02 11:46:06;;;;;;;10.45;5.35;;;;;;;6.98;98.85;99562.75;3506340;82;98295;-87
2021/05/02 11:51:19;;;;;;;12.83;6.53;;;;;;;7.00;98.65;99576.86;3500654;82;26141;-86
2021/05/02 11:56:33;;;;;;;12.50;6.78;;;;;;;7.01;98.70;99596.21;3497934;83;98030;-86
2021/05/02 12:01:38;;;;;;;13.73;6.87;;;;;;;6.97;98.54;99590.47;3505522;84;35056;-84
2021/05/02 12:06:39;;;;;;;11.75;6.12;;;;;;;7.01;98.52;99595.41;3504018;82;98423;-85
2021/05/02 12:11:42;;;;;;;9.70;5.83;;;;;;;7.02;98.24;99612.83;3511409;82;29250;-86
2021/05/02 12:16:47;;;;;;;12.78;6.12;;;;;;;6.99;98.06;99622.36;3500163;82;98308;-86
2021/05/02 12:21:47;;;;;;;14.50;7.17;;;;;;;6.98;97.79;99630.36;3460666;83;35578;-86
2021/05/02 12:26:50;;;;;;;13.27;8.23;;;;;;;6.95;98.04;99637.37;3472591;83;98309;-84
2021/05/02 12:31:55;;;;;;;10.07;5.37;;;;;;;6.93;97.97;99647.11;3491467;83;27063;-87
2021/05/02 12:36:58;;;;;;;9.83;5.30;;;;;;;6.94;97.84;99650.84;3483394;83;98300;-86
2021/05/02 12:41:59;;;;;;;14.70;6.80;;;;;;;6.91;97.71;99655.67;3483287;83;26251;-84
2021/05/02 12:47:16;;;;;;;12.90;5.70;;;;;;;6.86;97.58;99664.77;3490369;82;98284;-84
2021/05/02 12:52:17;;;;;;;9.53;4.70;;;;;;;6.87;97.52;99672.61;3482390;83;26185;-85
2021/05/02 12:57:19;;;;;;;5.73;2.77;;;;;;;6.85;97.25;99681.77;3471591;83;98168;-81
2021/05/02 13:02:29;;;;;;;8.87;3.40;;;;;;;6.72;96.83;99687.23;3484678;83;26316;-83
2021/05/02 13:07:43;;;;;;;8.30;3.27;;;;;;;6.67;96.78;99701.25;3479867;82;98446;-83
2021/05/02 13:13:02;;;;;;;10.73;4.07;;;;;;;6.61;96.73;99708.16;3484648;83;26074;-82
2021/05/02 13:18:12;;;;;;;8.57;3.60;;;;;;;6.61;96.60;99710.89;3483530;83;98191;-83
2021/05/02 13:23:36;;;;;;;9.30;4.30;;;;;;;6.50;95.94;99724.20;3483251;83;25915;-84
2021/05/02 13:28:39;;;;;;;7.67;4.13;;;;;;;6.39;95.56;99740.41;3462436;84;98064;-83
2021/05/02 13:33:40;;;;;;;9.00;3.97;;;;;;;6.28;95.56;99750.37;3469747;84;26183;-83
2021/05/02 13:38:41;;;;;;;9.37;4.27;;;;;;;6.25;95.61;99756.59;3465892;82;98215;-84
2021/05/02 13:43:41;;;;;;;9.33;3.90;;;;;;;6.22;95.67;99763.36;3476508;83;35031;-84
2021/05/02 13:48:45;;;;;;;7.37;3.30;;;;;;;6.12;95.13;99780.34;3484414;82;98110;-86
2021/05/02 13:53:51;;;;;;;8.17;3.83;;;;;;;6.00;95.52;99788.71;3501018;84;35557;-84
2021/05/02 13:58:54;;;;;;;10.40;5.10;;;;;;;5.94;95.77;99796.98;3506600;82;97947;-84
2021/05/02 14:03:55;;;;;;;7.50;3.80;;;;;;;5.92;95.93;99804.73;3502526;84;35031;-84
2021/05/02 14:08:56;;;;;;;11.87;5.87;;;;;;;5.82;95.89;99818.40;3517645;81;98361;-84
2021/05/02 14:13:57;;;;;;;9.93;4.60;;;;;;;5.81;96.10;99830.48;3544547;81;35045;-84
2021/05/02 14:18:58;;;;;;;8.70;3.90;;;;;;;5.79;95.72;99839.55;3525603;81;98062;-83
2021/05/02 14:23:59;;;;;;;9.13;3.77;;;;;;;5.73;95.67;99845.09;3530309;83;35192;-85
2021/05/02 14:29:00;;;;;;;9.73;3.77;;;;;;;5.68;95.73;99848.69;3494755;82;97908;-84
2021/05/02 14:34:08;;;;;;;7.43;3.63;;;;;;;5.67;95.78;99867.00;3472254;85;34995;-84
2021/05/02 14:39:04;;;;;;;8.20;4.00;;;;;;;5.68;95.90;99865.07;3489452;83;97963;-86
2021/05/02 14:44:04;;;;;;;7.90;4.40;;;;;;;5.71;95.55;99868.43;3508838;83;35070;-87
2021/05/02 14:49:05;;;;;;;7.83;3.87;;;;;;;5.73;95.78;99889.36;3518690;82;97972;-84
2021/05/02 14:54:06;;;;;;;9.63;4.33;;;;;;;5.76;95.90;99876.34;3456926;83;35296;-85
2021/05/02 14:59:07;;;;;;;9.37;4.80;;;;;;;5.81;96.08;99883.72;3423830;85;97970;-85
2021/05/02 15:04:08;;;;;;;11.30;4.83;;;;;;;5.90;96.34;99893.06;3457457;85;35049;-86
2021/05/02 15:09:08;;;;;;;9.73;4.15;;;;;;;5.95;96.16;99917.36;3418492;84;98456;-85
2021/05/02 15:14:09;;;;;;;9.93;4.63;;;;;;;5.97;96.22;99919.95;3533017;82;26457;-84
2021/05/02 15:19:10;;;;;;;8.70;4.13;;;;;;;5.99;96.20;99929.13;3457531;84;97889;-84
2021/05/02 15:24:11;;;;;;;10.00;3.93;;;;;;;6.01;95.47;99934.45;3462786;84;32725;-86
2021/05/02 15:29:15;;;;;;;7.17;3.10;;;;;;;6.02;95.32;99947.55;3435891;85;98395;-84
2021/05/02 15:34:16;;;;;;;7.70;3.77;;;;;;;6.00;95.27;99947.13;3479097;83;28229;-84
2021/05/02 15:39:16;;;;;;;8.07;4.00;;;;;;;6.00;95.49;99949.86;3441409;84;101300;-85
2021/05/02 15:44:17;;;;;;;7.93;3.63;;;;;;;5.99;95.23;99951.78;3446530;84;32777;-85
2021/05/02 15:49:19;;;;;;;10.33;4.33;;;;;;;6.07;95.47;99963.09;3446934;84;98037;-85
2021/05/02 15:54:20;;;;;;;9.17;3.63;;;;;;;6.13;95.42;99964.39;3445956;84;32665;-84
2021/05/02 15:59:21;;;;;;;32.67;12.05;;;;;;;6.16;95.29;99957.42;3438948;84;97836;-85
2021/05/02 16:04:21;;;;;;;18.87;8.60;;;;;;;6.21;95.36;99965.34;3442357;84;32691;-86
2021/05/02 16:09:22;;;;;;;11.03;6.50;;;;;;;6.25;95.12;99977.91;3444306;84;98193;-84
2021/05/02 16:14:23;;;;;;;11.68;6.67;;;;;;;6.35;95.54;99971.08;3473680;83;32771;-85
2021/05/02 16:19:23;;;;;;;12.00;6.37;;;;;;;6.41;95.66;99974.53;3421790;85;97787;-85
2021/05/02 16:24:24;;;;;;;9.27;4.60;;;;;;;6.54;95.67;99976.55;3479378;83;27189;-84
2021/05/02 16:29:25;;;;;;;10.88;4.80;;;;;;;6.63;95.28;99991.58;3437545;84;97671;-84
2021/05/02 16:34:26;;;;;;;9.70;4.63;;;;;;;6.63;94.93;99982.57;3443607;84;26392;-84
2021/05/02 16:39:27;;;;;;;8.17;4.53;;;;;;;6.65;94.74;99993.95;3428763;84;97891;-83
2021/05/02 16:44:28;;;;;;;9.43;5.47;;;;;;;6.65;94.73;100000.80;3445830;84;26778;-84
2021/05/02 16:49:29;;;;;;;9.10;4.50;;;;;;;6.63;94.57;100005.81;3427565;84;98188;-84
2021/05/02 16:54:29;;;;;;;11.55;5.62;;;;;;;6.66;94.38;100014.08;3437751;84;25899;-85
2021/05/02 16:59:31;;;;;;;10.67;6.17;;;;;;;6.71;94.43;100013.79;3431165;84;98372;-85
2021/05/02 17:04:32;;;;;;;8.60;4.50;;;;;;;6.71;94.06;100028.05;3432721;84;32775;-85
2021/05/02 17:09:32;;;;;;;10.73;5.20;;;;;;;6.66;93.89;100029.12;3434381;84;98244;-84
2021/05/02 17:14:33;;;;;;;10.33;5.43;;;;;;;6.63;94.06;100035.32;3436778;84;32718;-86
2021/05/02 17:19:34;;;;;;;10.47;5.63;;;;;;;6.63;94.20;100038.62;3434249;84;98155;-86
2021/05/02 17:24:35;;;;;;;10.23;4.80;;;;;;;6.62;93.77;100038.41;3440760;84;33160;-85
2021/05/02 17:29:35;;;;;;;9.07;4.60;;;;;;;6.57;93.47;100053.17;3412846;84;98356;-85
2021/05/02 17:34:36;;;;;;;8.10;3.80;;;;;;;6.46;93.20;100059.55;3425749;85;35518;-84
2021/05/02 17:39:37;;;;;;;8.67;4.03;;;;;;;6.33;92.77;100068.44;3411743;85;97934;-87
2021/05/02 17:44:38;;;;;;;8.93;4.30;;;;;;;6.12;92.50;100072.66;3417042;85;32158;-83
2021/05/02 17:49:39;;;;;;;8.33;3.47;;;;;;;6.04;92.72;100077.16;3405137;85;98137;-85
2021/05/02 17:54:40;;;;;;;7.03;3.63;;;;;;;5.94;92.67;100088.63;3419187;85;31857;-86
2021/05/02 17:59:41;;;;;;;8.90;3.63;;;;;;;5.90;92.70;100100.03;3404937;85;98425;-87
2021/05/02 18:04:43;;;;;;;11.27;5.87;;;;;;;5.86;92.62;100104.63;3422260;85;31819;-86
2021/05/02 18:09:44;;;;;;;26.33;12.63;;;;;;;5.83;92.69;100110.78;3414498;85;98229;-86
2021/05/02 18:14:44;;;;;;;13.33;7.33;;;;;;;5.86;92.53;100112.83;3411181;85;31908;-86
2021/05/02 18:19:45;;;;;;;17.43;10.57;;;;;;;5.85;92.56;100120.00;3407478;85;98151;-86
2021/05/02 18:24:46;;;;;;;20.57;12.13;;;;;;;5.82;92.53;100115.23;3421458;85;31954;-86
2021/05/02 18:29:47;;;;;;;13.83;9.23;;;;;;;5.86;92.47;100127.03;3425790;84;98482;-85
2021/05/02 18:34:47;;;;;;;10.50;6.30;;;;;;;5.82;92.45;100136.52;3434829;85;35134;-87
2021/05/02 18:39:48;;;;;;;11.95;6.15;;;;;;;5.85;92.45;100147.30;3426961;85;98329;-86
2021/05/02 18:44:51;;;;;;;12.03;5.67;;;;;;;5.83;92.50;100150.97;3426511;85;35056;-86
2021/05/02 18:49:52;;;;;;;11.97;5.50;;;;;;;5.78;92.45;100167.58;3418092;85;98807;-88
2021/05/02 18:54:52;;;;;;;12.13;6.37;;;;;;;5.80;92.60;100174.31;3425225;85;35678;-87
2021/05/02 18:59:56;;;;;;;12.67;7.30;;;;;;;5.79;92.60;100185.55;3414680;85;98293;-87
2021/05/02 19:04:56;;;;;;;9.90;5.27;;;;;;;5.77;92.82;100191.91;3413402;85;35019;-87
2021/05/02 19:09:56;;;;;;;11.20;5.23;;;;;;;5.77;92.93;100197.38;3400927;85;98126;-87
2021/05/02 19:14:57;;;;;;;9.10;5.00;;;;;;;5.78;92.91;100200.34;3401846;85;35566;-86
2021/05/02 19:19:58;;;;;;;9.37;4.60;;;;;;;5.83;92.87;100213.78;3396495;85;97877;-85
2021/05/02 19:25:00;;;;;;;11.23;5.73;;;;;;;5.83;92.83;100217.88;3390232;85;35027;-85
2021/05/02 19:30:01;;;;;;;11.17;5.50;;;;;;;5.81;92.74;100216.05;3374650;85;98394;-85
2021/05/02 19:35:07;;;;;;;24.87;11.20;;;;;;;5.78;92.66;100220.83;3393795;85;35443;-86
2021/05/02 19:40:09;;;;;;;21.62;10.15;;;;;;;5.80;92.81;100220.73;3403750;84;98744;-85
2021/05/02 19:45:10;;;;;;;12.87;6.47;;;;;;;5.78;92.72;100214.78;3409596;85;35065;-87
2021/05/02 19:50:11;;;;;;;13.33;6.73;;;;;;;5.79;92.60;100219.68;3414206;84;98363;-85
2021/05/02 19:55:12;;;;;;;10.77;5.27;;;;;;;5.75;92.38;100214.69;3411731;86;35510;-85
2021/05/02 20:00:14;;;;;;;10.03;5.13;;;;;;;5.68;92.23;100228.93;3391181;86;98384;-86
2021/05/02 20:05:15;;;;;;;13.33;5.90;;;;;;;5.65;92.19;100225.55;3381109;86;35639;-86
2021/05/02 20:10:16;;;;;;;12.60;6.00;;;;;;;5.68;92.23;100230.89;3381255;84;98270;-86
2021/05/02 20:15:17;;;;;;;12.33;7.23;;;;;;;5.70;92.27;100231.32;3391224;86;35143;-86
2021/05/02 20:20:18;;;;;;;15.03;8.73;;;;;;;5.72;92.29;100238.02;3408378;86;98428;-86
2021/05/02 20:25:19;;;;;;;13.40;6.40;;;;;;;5.71;92.13;100241.90;3407774;86;35081;-86
2021/05/02 20:30:21;;;;;;;13.97;7.67;;;;;;;5.73;92.16;100236.87;3389751;86;98434;-88
2021/05/02 20:35:29;;;;;;;14.03;6.80;;;;;;;5.74;92.38;100239.05;3412941;85;35061;-87
2021/05/02 20:40:33;;;;;;;11.70;6.43;;;;;;;5.71;91.76;100237.80;3400530;85;98508;-86
2021/05/02 20:45:34;;;;;;;12.83;7.10;;;;;;;5.71;91.76;100237.80;3401195;85;35030;-88
2021/05/02 20:50:36;;;;;;;14.40;6.87;;;;;;;5.74;92.11;100247.23;3401734;85;98357;-86
2021/05/02 20:55:37;;;;;;;15.33;7.03;;;;;;;5.76;91.98;100244.37;3407048;85;35840;-87
2021/05/02 21:00:38;;;;;;;13.43;6.03;;;;;;;5.79;91.87;100236.06;3408310;85;98474;-89
2021/05/02 21:05:39;;;;;;;12.30;5.77;;;;;;;5.74;91.88;100233.00;3419090;85;36158;-87
2021/05/02 21:10:40;;;;;;;13.60;6.13;;;;;;;5.76;91.66;100232.66;3413047;84;98457;-84
2021/05/02 21:15:41;;;;;;;12.60;6.03;;;;;;;5.75;91.50;100228.34;3416173;85;34985;-86
2021/05/02 21:20:42;;;;;;;13.33;6.40;;;;;;;5.73;91.55;100231.41;3403723;85;98740;-84
2021/05/02 21:25:42;;;;;;;15.50;6.20;;;;;;;5.69;91.49;100222.36;3405344;85;35045;-86
2021/05/02 21:30:45;;;;;;;25.58;9.06;;;;;;;5.70;91.35;100234.05;3405442;85;98386;-86
2021/05/02 21:35:45;;;;;;;15.50;7.73;;;;;;;5.67;91.38;100246.46;3407696;85;32727;-86
2021/05/02 21:40:46;;;;;;;13.80;6.07;;;;;;;5.60;90.89;100245.47;3401883;85;98315;-86
2021/05/02 21:45:47;;;;;;;11.00;5.43;;;;;;;5.41;90.59;100248.84;3425471;85;32694;-85
2021/05/02 21:50:48;;;;;;;11.43;5.33;;;;;;;5.18;90.44;100244.28;3430147;84;98097;-86
2021/05/02 21:55:48;;;;;;;11.90;5.73;;;;;;;5.08;90.51;100255.66;3436696;84;33188;-85
2021/05/02 22:00:56;;;;;;;10.30;5.07;;;;;;;4.96;90.42;100258.42;3423898;83;97885;-84
2021/05/02 22:05:56;;;;;;;13.27;6.30;;;;;;;4.80;90.44;100258.31;3385560;85;98747;-85
2021/05/02 22:11:00;;;;;;;11.93;5.93;;;;;;;4.71;90.76;100257.66;3407146;85;32736;-87
2021/05/02 22:16:03;;;;;;;15.20;6.40;;;;;;;4.70;90.94;100263.44;3411858;85;98316;-87
2021/05/02 22:21:08;;;;;;;13.63;6.63;;;;;;;4.69;91.25;100272.17;3426944;84;32718;-86
2021/05/02 22:26:12;;;;;;;14.00;7.17;;;;;;;4.62;91.33;100277.41;3408337;84;98397;-86
2021/05/02 22:31:16;;;;;;;14.80;6.90;;;;;;;4.59;91.71;100274.58;3420028;86;33210;-84
2021/05/02 22:36:18;;;;;;;14.90;7.47;;;;;;;4.64;91.97;100274.34;3423311;85;98462;-84
2021/05/02 22:41:18;;;;;;;13.87;6.50;;;;;;;4.72;92.08;100278.88;3388759;85;33285;-86
2021/05/02 22:46:19;;;;;;;15.17;6.83;;;;;;;4.78;91.99;100285.13;3379028;85;98582;-86
2021/05/02 22:51:20;;;;;;;12.37;6.30;;;;;;;4.80;92.00;100284.21;3396149;85;32745;-86
2021/05/02 22:56:21;;;;;;;13.03;6.30;;;;;;;4.75;92.18;100276.84;3391026;85;101121;-86
2021/05/02 23:01:22;;;;;;;13.63;7.17;;;;;;;4.77;92.33;100284.91;3421474;85;32644;-86
2021/05/02 23:06:22;;;;;;;11.68;5.45;;;;;;;4.80;92.40;100282.84;3402728;85;98529;-86
2021/05/02 23:11:23;;;;;;;11.87;5.87;;;;;;;4.83;92.31;100280.81;3423630;85;32772;-86
2021/05/02 23:16:24;;;;;;;13.95;7.83;;;;;;;4.90;92.28;100281.03;3413033;85;98277;-86
2021/05/02 23:21:25;;;;;;;15.57;8.37;;;;;;;4.95;92.19;100274.53;3417095;85;28271;-85
2021/05/02 23:26:26;;;;;;;15.67;6.87;;;;;;;4.96;92.18;100285.11;3415589;85;98945;-86
2021/05/02 23:31:27;;;;;;;12.13;5.63;;;;;;;4.96;92.23;100289.19;3438543;84;26446;-85
2021/05/02 23:36:28;;;;;;;13.13;6.53;;;;;;;4.98;92.25;100283.41;3439870;84;98452;-86
2021/05/02 23:41:29;;;;;;;11.47;6.27;;;;;;;4.91;92.35;100287.28;3449379;84;26278;-85
2021/05/02 23:46:29;;;;;;;13.13;5.40;;;;;;;4.94;92.42;100290.67;3443803;84;98464;-85
2021/05/02 23:51:30;;;;;;;14.07;6.67;;;;;;;4.97;92.34;100290.00;3443965;84;26582;-86
2021/05/02 23:56:31;;;;;;;14.83;6.47;;;;;;;4.99;92.28;100288.52;3436073;84;98571;-85
